VIDP/DEL METAR and TAF weather

Enter ICAO airport designator
Station Type Date Time Source
VIDP METAR 2022/01/18 06:30 UTC NOAA

VIDP 180630Z 31005KT 1000 R28/1800 R29/1600 BR FEW035 BKN100 12/10 Q1020 NOSIG


Station Type Date Time Source
VIDP Decoded METAR 2022/01/18 06:30 UTC NOAA

New Delhi / Palam, India (VIDP) 28-34N 077-07E 233M
Jan 18, 2022 - 01:30 AM EST / 2022.01.18 0630 UTC
Wind: from the NW (310 degrees) at 6 MPH (5 KT):0
Visibility: less than 1 mile:0
Sky conditions: mostly cloudy
Weather: mist
Temperature: 53 F (12 C)
Dew Point: 50 F (10 C)
Relative Humidity: 87%
Pressure (altimeter): 30.12 in. Hg (1020 hPa)
ob: VIDP 180630Z 31005KT 1000 R28/1800 R29/1600 BR FEW035 BKN100 12/10 Q1020 NOSIG
cycle: 6

Station Type Date Time Source
VIDP TAF 2022/01/18 06:36 UTC NOAA

TAF VIDP 180500Z 1806/1912 27004KT 1200 BR FEW035 SCT100
BECMG 1810/1812 30004KT 1500 BR FEW035 SCT100
BECMG 1815/1819 27002KT 1200 BR FEW035 SCT100
BECMG 1900/1904 24002KT 1000 BR SCT030 BKN080
BECMG 1907/1911 30003KT 1200 BR SCT030 BKN080

Example: see airport list